CheckWX is a tool to help pilots better visualize weather data.  It is not intended as a substitute for an official pre-flight weather briefing.

00:26:58 UTC

UAOO TAF
Kzyl-Orda Southwest Airport
Kzyl-Orda, Kazakhstan
TAF UAOO 192300Z 2000/2009 32006MPS 9999 BKN020CB BKN100

Apr-20@
00:00 UTC

Apr-20 @ 00:00 UTC

Apr-20@
09:00 UTC

Apr-20 @ 09:00 UTC

TAF UAOO 192300Z 2000/2009 32006MPS 9999 BKN020CB BKN100
Wind
  • 320° at 12 KTS
Cloud Levels
  • Broken at 2,000' AGL
  • Broken at 10,000' AGL